createdAt,value
2022-09-05T00:04:47.853Z,4.88
2022-09-05T00:09:53.205Z,4.07
2022-09-05T00:15:23.481Z,4.18
2022-09-05T00:24:18.889Z,6.70
2022-09-05T00:26:13.929Z,7.25
2022-09-05T00:31:53.957Z,4.80
2022-09-05T00:36:56.073Z,9.30
2022-09-05T00:42:02.055Z,5.35
2022-09-05T00:52:30.963Z,7.03
2022-09-05T00:57:41.724Z,8.65
2022-09-05T01:03:21.293Z,9.32
2022-09-05T01:08:49.739Z,7.18
2022-09-05T01:14:00.535Z,5.88
2022-09-05T01:19:22.224Z,5.65
2022-09-05T01:24:53.562Z,8.70
2022-09-05T01:30:18.481Z,8.18
2022-09-05T01:35:52.337Z,11.30
2022-09-05T01:41:32.865Z,6.70
2022-09-05T01:46:51.527Z,7.85
2022-09-05T01:52:16.590Z,7.28
2022-09-05T01:57:47.392Z,5.75
2022-09-05T02:03:08.624Z,7.32
2022-09-05T02:08:23.970Z,8.43
2022-09-05T02:13:34.971Z,12.13
2022-09-05T02:18:37.137Z,14.40
2022-09-05T02:23:46.704Z,7.95
2022-09-05T02:29:29.310Z,9.95
2022-09-05T02:34:43.815Z,6.70
2022-09-05T02:45:08.602Z,7.35
2022-09-05T02:45:39.061Z,10.32
2022-09-05T02:55:05.732Z,7.50
2022-09-05T02:57:32.671Z,10.50
2022-09-05T03:02:31.513Z,7.05
2022-09-05T03:08:10.991Z,9.35
2022-09-05T03:13:48.235Z,11.98
2022-09-05T03:19:37.753Z,10.00
2022-09-05T03:25:42.591Z,11.68
2022-09-05T03:31:03.413Z,8.30
2022-09-05T03:36:23.653Z,10.90
2022-09-05T03:41:45.022Z,8.68
2022-09-05T03:46:53.980Z,9.32
2022-09-05T03:57:05.649Z,7.10
2022-09-05T03:58:08.225Z,12.07
2022-09-05T04:08:06.160Z,12.55
2022-09-05T04:09:22.767Z,12.57
2022-09-05T04:14:55.807Z,7.95
2022-09-05T04:20:22.930Z,7.30
2022-09-05T04:25:40.316Z,6.63
2022-09-05T04:31:01.322Z,14.43
2022-09-05T04:36:26.146Z,11.80
2022-09-05T04:41:39.887Z,19.63
2022-09-05T04:46:48.785Z,10.30
2022-09-05T04:52:31.170Z,7.38
2022-09-05T04:57:40.143Z,11.25
2022-09-05T05:06:17.102Z,10.90
2022-09-05T05:08:16.371Z,9.88
2022-09-05T05:17:56.225Z,11.23
2022-09-05T05:19:29.903Z,8.15
2022-09-05T05:24:36.351Z,9.43
2022-09-05T05:29:38.428Z,8.80
2022-09-05T05:34:50.056Z,8.93
2022-09-05T05:40:11.455Z,6.20
2022-09-05T05:45:27.423Z,6.97
2022-09-05T05:50:51.777Z,9.07
2022-09-05T05:56:04.053Z,8.45
2022-09-05T06:01:40.268Z,9.07
2022-09-05T06:07:22.413Z,8.85
2022-09-05T06:15:03.766Z,7.35
2022-09-05T06:19:11.449Z,8.98
2022-09-05T06:24:28.913Z,7.70
2022-09-05T06:29:58.463Z,5.60
2022-09-05T06:35:25.289Z,6.25
2022-09-05T06:40:39.407Z,5.00
2022-09-05T06:45:59.017Z,5.68
2022-09-05T06:51:10.926Z,6.32
2022-09-05T06:57:00.188Z,6.15
2022-09-05T07:02:12.100Z,5.53
2022-09-05T07:07:35.716Z,7.07
2022-09-05T07:12:56.929Z,6.45
2022-09-05T07:18:11.151Z,5.82
2022-09-05T07:24:06.203Z,3.53
2022-09-05T07:29:06.495Z,6.00
2022-09-05T07:34:25.458Z,3.95
2022-09-05T07:39:33.573Z,3.72
2022-09-05T07:44:40.468Z,3.40
2022-09-05T07:49:57.961Z,4.82
2022-09-05T07:56:59.386Z,7.53
2022-09-05T08:00:44.323Z,4.50
2022-09-05T08:05:54.147Z,4.43
2022-09-05T08:11:23.588Z,3.88
2022-09-05T08:16:25.903Z,3.00
2022-09-05T08:21:43.839Z,3.40
2022-09-05T08:26:57.404Z,5.60
2022-09-05T08:32:10.227Z,3.92
2022-09-05T08:37:21.613Z,4.70
2022-09-05T08:42:37.715Z,3.15
2022-09-05T08:47:56.628Z,3.35
2022-09-05T08:53:45.244Z,2.33
2022-09-05T08:58:55.400Z,5.50
2022-09-05T09:04:29.788Z,2.25
2022-09-05T09:09:51.257Z,4.47
2022-09-05T09:15:08.432Z,4.03
2022-09-05T09:20:22.813Z,3.83
2022-09-05T09:25:34.158Z,3.50
2022-09-05T09:30:39.634Z,3.30
2022-09-05T09:35:55.889Z,4.38
2022-09-05T09:41:22.913Z,6.07
2022-09-05T09:46:46.472Z,2.63
2022-09-05T09:51:58.659Z,4.18
2022-09-05T09:57:23.742Z,4.95
2022-09-05T10:08:26.967Z,6.30
2022-09-05T10:10:45.889Z,4.70
2022-09-05T10:14:47.804Z,3.20
2022-09-05T10:20:09.049Z,4.40
2022-09-05T10:25:30.159Z,4.07
2022-09-05T10:32:19.329Z,5.32
2022-09-05T10:36:27.261Z,7.53
2022-09-05T10:41:54.127Z,5.68
2022-09-05T10:47:22.122Z,4.93
2022-09-05T10:52:40.457Z,5.32
2022-09-05T10:58:01.951Z,4.72
2022-09-05T11:03:05.228Z,5.32
2022-09-05T11:08:49.604Z,5.15
2022-09-05T11:13:55.575Z,5.93
2022-09-05T11:19:19.247Z,3.97
2022-09-05T11:24:33.761Z,4.88
2022-09-05T11:29:35.992Z,4.47
2022-09-05T11:39:36.454Z,4.60
2022-09-05T11:40:30.229Z,5.18
2022-09-05T11:45:58.016Z,5.57
2022-09-05T11:51:55.529Z,2.47
2022-09-05T11:57:18.012Z,3.85
2022-09-05T12:02:26.853Z,2.60
2022-09-05T12:07:57.486Z,3.63
2022-09-05T12:13:08.348Z,1.77
2022-09-05T12:18:29.075Z,2.88
2022-09-05T12:25:25.964Z,3.90
2022-09-05T12:29:50.025Z,3.85
2022-09-05T12:36:13.159Z,2.63
2022-09-05T12:41:35.013Z,2.40
2022-09-05T12:46:27.663Z,2.97
2022-09-05T12:51:45.770Z,4.47
2022-09-05T13:00:26.258Z,3.10
2022-09-05T13:03:07.999Z,2.00
2022-09-05T13:07:56.297Z,2.78
2022-09-05T13:15:03.006Z,2.75
2022-09-05T13:18:31.289Z,2.70
2022-09-05T13:23:50.090Z,3.20
2022-09-05T13:29:11.014Z,2.90
2022-09-05T13:38:07.750Z,3.47
2022-09-05T13:40:04.922Z,3.78
2022-09-05T13:45:15.359Z,5.40
2022-09-05T13:50:47.082Z,4.82
2022-09-05T13:55:54.055Z,2.20
2022-09-05T14:01:27.021Z,1.73
2022-09-05T14:07:44.054Z,2.03
2022-09-05T14:12:44.107Z,2.53
2022-09-05T14:18:01.355Z,3.55
2022-09-05T14:23:15.862Z,7.90
2022-09-05T14:28:25.703Z,4.25
2022-09-05T14:37:43.764Z,3.83
2022-09-05T14:39:37.545Z,2.40
2022-09-05T14:44:48.793Z,4.85
2022-09-05T14:49:57.826Z,4.03
2022-09-05T15:02:58.667Z,4.55
2022-09-05T15:05:50.447Z,4.28
2022-09-05T15:12:16.062Z,2.70
2022-09-05T15:16:20.369Z,3.03
2022-09-05T15:21:38.212Z,2.95
2022-09-05T15:26:59.564Z,3.25
2022-09-05T15:32:23.448Z,6.05
2022-09-05T15:37:37.089Z,3.35
2022-09-05T15:42:58.977Z,3.80
2022-09-05T15:48:22.037Z,2.65
2022-09-05T15:53:37.104Z,2.65
2022-09-05T15:58:53.594Z,4.22
2022-09-05T16:07:06.810Z,3.08
2022-09-05T16:10:45.654Z,6.20
2022-09-05T16:16:50.134Z,5.82
2022-09-05T16:23:33.599Z,2.13
2022-09-05T16:26:12.348Z,2.65
2022-09-05T16:31:26.957Z,3.83
2022-09-05T16:36:40.223Z,3.97
2022-09-05T16:42:02.736Z,4.82
2022-09-05T16:47:24.583Z,4.63
2022-09-05T16:52:54.239Z,5.45
2022-09-05T16:58:31.597Z,5.18
2022-09-05T17:04:15.736Z,6.80
2022-09-05T17:09:25.834Z,6.90
2022-09-05T17:14:34.118Z,5.43
2022-09-05T17:19:38.787Z,7.55
2022-09-05T17:29:27.000Z,4.93
2022-09-05T17:36:42.446Z,4.88
2022-09-05T17:42:13.566Z,4.95
2022-09-05T17:47:35.999Z,3.65
2022-09-05T17:53:26.202Z,4.38
2022-09-05T17:58:49.461Z,6.60
2022-09-05T18:03:54.379Z,6.03
2022-09-05T18:08:56.538Z,2.83
2022-09-05T18:14:01.625Z,5.75
2022-09-05T18:19:34.657Z,5.13
2022-09-05T18:25:28.525Z,4.13
2022-09-05T18:30:23.159Z,7.82
2022-09-05T18:35:37.839Z,4.25
2022-09-05T18:40:46.584Z,4.07
2022-09-05T18:45:53.420Z,3.13
2022-09-05T18:51:15.368Z,4.60
2022-09-05T18:57:27.352Z,4.97
2022-09-05T19:02:41.060Z,5.32
2022-09-05T19:07:48.424Z,6.35
2022-09-05T19:13:15.033Z,5.85
2022-09-05T19:18:37.086Z,5.43
2022-09-05T19:23:46.034Z,9.48
2022-09-05T19:36:49.842Z,5.93
2022-09-05T19:37:10.159Z,5.72
2022-09-05T19:44:19.977Z,9.57
2022-09-05T19:47:39.852Z,8.88
2022-09-05T19:50:48.911Z,6.95
2022-09-05T19:55:51.782Z,4.88
2022-09-05T20:01:08.225Z,5.72
2022-09-05T20:06:29.004Z,3.92
2022-09-05T20:11:45.756Z,3.78
2022-09-05T20:16:50.655Z,3.97
2022-09-05T20:21:56.852Z,4.20
2022-09-05T20:27:00.877Z,5.82
2022-09-05T20:32:04.123Z,3.90
2022-09-05T20:43:10.133Z,9.68
2022-09-05T20:43:23.029Z,4.85
2022-09-05T20:54:08.262Z,6.00
2022-09-05T20:54:12.673Z,5.53
2022-09-05T20:58:50.328Z,7.57
2022-09-05T21:04:01.107Z,4.00
2022-09-05T21:09:15.272Z,5.20
2022-09-05T21:14:22.167Z,4.60
2022-09-05T21:19:35.160Z,5.90
2022-09-05T21:24:37.312Z,5.85
2022-09-05T21:29:39.760Z,6.32
2022-09-05T21:34:51.576Z,3.37
2022-09-05T21:39:59.601Z,3.60
2022-09-05T21:47:40.212Z,5.30
2022-09-05T21:50:30.807Z,5.05
2022-09-05T21:59:19.389Z,6.22
2022-09-05T22:00:57.565Z,1.95
2022-09-05T22:06:00.489Z,2.58
2022-09-05T22:11:11.923Z,4.22
2022-09-05T22:16:15.370Z,5.03
2022-09-05T22:21:33.235Z,4.20
2022-09-05T22:27:11.840Z,4.90
2022-09-05T22:32:08.823Z,5.47
2022-09-05T22:37:11.014Z,4.65
2022-09-05T22:42:13.360Z,2.72
2022-09-05T22:47:15.612Z,3.60
2022-09-05T22:52:17.863Z,4.78
2022-09-05T22:57:20.012Z,3.92
2022-09-05T23:02:22.279Z,4.72
2022-09-05T23:07:24.500Z,6.57
2022-09-05T23:12:26.851Z,5.43
2022-09-05T23:17:29.088Z,5.50
2022-09-05T23:22:31.285Z,3.00
2022-09-05T23:27:37.858Z,5.53
2022-09-05T23:32:47.825Z,6.18
2022-09-05T23:37:49.986Z,4.63
2022-09-05T23:42:56.443Z,2.63
2022-09-05T23:47:59.374Z,2.78
2022-09-05T23:53:04.867Z,3.20
2022-09-05T23:58:07.245Z,3.58
